Time,TemperatureF,DewpointF,PressureIn,WindDirection,WindDirectionDegrees,WindSpeedMPH,WindSpeedGustMPH,Humidity,HourlyPrecipIn,Conditions,Clouds,dailyrainin,SoftwareType,DateUTC
2013-02-21 00:21:00,31.0,27.0,-100.00,ESE,121,6.0,8.0,84,-99.99,,,-99.99,,2013-02-21 08:21:00,
2013-02-21 00:31:00,30.0,26.0,-100.00,SE,132,6.0,8.0,86,-99.99,,,-99.99,,2013-02-21 08:31:00,
2013-02-21 00:41:00,30.0,27.0,-100.00,SE,134,6.0,9.0,87,-99.99,,,-99.99,,2013-02-21 08:41:00,
2013-02-21 00:51:00,31.0,27.0,-100.00,ESE,122,7.0,9.0,85,-99.99,,,-99.99,,2013-02-21 08:51:00,
2013-02-21 01:01:00,32.0,27.0,-100.00,ESE,123,6.0,9.0,82,-99.99,,,-99.99,,2013-02-21 09:01:00,
2013-02-21 01:11:00,32.0,27.0,-100.00,SE,125,5.0,7.0,81,-99.99,,,-99.99,,2013-02-21 09:11:00,
2013-02-21 01:22:00,32.0,27.0,-100.00,ESE,122,6.0,8.0,80,-99.99,,,-99.99,,2013-02-21 09:22:00,
2013-02-21 01:30:00,31.0,26.0,-100.00,ESE,123,7.0,10.0,83,-99.99,,,-99.99,,2013-02-21 09:30:00,
2013-02-21 01:31:00,32.0,27.0,-100.00,SE,125,6.0,8.0,80,-99.99,,,-99.99,,2013-02-21 09:31:00,
2013-02-21 01:41:00,32.0,27.0,-100.00,ESE,123,6.0,8.0,81,-99.99,,,-99.99,,2013-02-21 09:41:00,
2013-02-21 01:51:00,31.0,26.0,-100.00,ESE,113,7.0,11.0,82,-99.99,,,-99.99,,2013-02-21 09:51:00,
2013-02-21 02:01:00,31.0,26.0,-100.00,ESE,123,7.0,10.0,83,-99.99,,,-99.99,,2013-02-21 10:01:00,
2013-02-21 02:11:00,31.0,26.0,-100.00,ESE,123,7.0,10.0,83,-99.99,,,-99.99,,2013-02-21 10:11:00,
2013-02-21 02:21:00,31.0,26.0,-100.00,ESE,123,7.0,10.0,83,-99.99,,,-99.99,,2013-02-21 10:21:00,
2013-02-21 02:30:00,28.0,25.0,-100.00,SE,138,7.0,9.0,89,-99.99,,,-99.99,,2013-02-21 10:30:00,
2013-02-21 02:51:00,28.0,25.0,-100.00,SE,138,7.0,9.0,89,-99.99,,,-99.99,,2013-02-21 10:51:00,
2013-02-21 03:01:00,28.0,25.0,-100.00,SE,138,7.0,9.0,89,-99.99,,,-99.99,,2013-02-21 11:01:00,
2013-02-21 03:11:00,28.0,25.0,-100.00,SE,138,7.0,9.0,89,-99.99,,,-99.99,,2013-02-21 11:11:00,
2013-02-21 03:21:00,28.0,25.0,-100.00,SE,138,7.0,9.0,89,-99.99,,,-99.99,,2013-02-21 11:21:00,
2013-02-21 20:10:00,33.0,30.0,-100.00,SE,134,2.0,4.0,89,-99.99,,,-99.99,,2013-02-22 04:10:00,
2013-02-21 20:11:00,35.0,32.0,-100.00,ESE,121,2.0,4.0,89,-99.99,,,-99.99,,2013-02-22 04:11:00,
2013-02-21 20:21:00,34.0,31.0,-100.00,SSE,150,5.0,8.0,90,-99.99,,,-99.99,,2013-02-22 04:21:00,
2013-02-21 20:32:00,34.0,31.0,-100.00,SSE,151,4.0,6.0,89,-99.99,,,-99.99,,2013-02-22 04:32:00,
2013-02-21 20:42:00,33.0,30.0,-100.00,SE,134,2.0,4.0,89,-99.99,,,-99.99,,2013-02-22 04:42:00,
2013-02-21 20:51:00,33.0,30.0,-100.00,SE,134,2.0,4.0,89,-99.99,,,-99.99,,2013-02-22 04:51:00,
2013-02-21 21:01:00,33.0,30.0,-100.00,SE,134,2.0,4.0,89,-99.99,,,-99.99,,2013-02-22 05:01:00,